createdAt,value
2018-08-31T00:00:14.433Z,12.77
2018-08-31T00:00:45.555Z,12.77
2018-08-31T00:01:16.794Z,12.40
2018-08-31T00:01:47.916Z,13.03
2018-08-31T00:02:19.141Z,13.03
2018-08-31T00:02:50.330Z,13.57
2018-08-31T00:03:21.512Z,13.30
2018-08-31T00:03:52.748Z,13.23
2018-08-31T00:04:23.930Z,12.40
2018-08-31T00:04:55.105Z,13.20
2018-08-31T00:05:26.276Z,13.30
2018-08-31T00:05:57.444Z,13.03
2018-08-31T00:06:28.563Z,13.87
2018-08-31T00:06:59.722Z,13.20
2018-08-31T00:07:30.832Z,14.00
2018-08-31T00:08:01.941Z,13.40
2018-08-31T00:08:33.110Z,13.37
2018-08-31T00:09:04.307Z,13.77
2018-08-31T00:09:35.479Z,14.07
2018-08-31T00:10:06.661Z,13.47
2018-08-31T00:10:37.905Z,13.67
2018-08-31T00:11:09.088Z,13.20
2018-08-31T00:11:40.264Z,13.63
2018-08-31T00:12:11.487Z,13.17
2018-08-31T00:12:42.661Z,13.40
2018-08-31T00:13:13.772Z,13.87
2018-08-31T00:13:44.950Z,14.33
2018-08-31T00:14:16.123Z,14.57
2018-08-31T00:14:47.301Z,13.30
2018-08-31T00:15:18.419Z,14.73
2018-08-31T00:15:49.538Z,14.13
2018-08-31T00:16:20.655Z,13.97
2018-08-31T00:16:51.824Z,14.40
2018-08-31T00:17:22.994Z,13.90
2018-08-31T00:17:54.175Z,14.53
2018-08-31T00:18:25.295Z,13.50
2018-08-31T00:18:56.420Z,13.93
2018-08-31T00:19:27.580Z,14.23
2018-08-31T00:19:58.695Z,14.27
2018-08-31T00:20:29.818Z,14.77
2018-08-31T00:21:00.939Z,14.07
2018-08-31T00:21:32.163Z,13.80
2018-08-31T00:22:03.356Z,14.67
2018-08-31T00:22:34.588Z,14.30
2018-08-31T00:23:05.812Z,13.77
2018-08-31T00:23:36.987Z,14.27
2018-08-31T00:24:08.104Z,14.47
2018-08-31T00:24:39.212Z,15.07
2018-08-31T00:25:10.420Z,14.77
2018-08-31T00:25:41.544Z,14.80
2018-08-31T00:26:12.657Z,14.73
2018-08-31T00:26:43.773Z,15.07
2018-08-31T00:27:14.920Z,15.00
2018-08-31T00:27:46.140Z,15.40
2018-08-31T00:28:17.296Z,14.80
2018-08-31T00:28:48.473Z,15.57
2018-08-31T00:29:19.667Z,14.30
2018-08-31T00:29:50.815Z,15.20
2018-08-31T00:30:21.988Z,14.63
2018-08-31T00:30:53.152Z,14.57
2018-08-31T00:31:24.280Z,14.33
2018-08-31T00:31:55.394Z,15.57
2018-08-31T00:32:26.513Z,15.13
2018-08-31T00:32:57.656Z,16.27
2018-08-31T00:33:28.884Z,16.27
2018-08-31T00:34:00.026Z,16.50
2018-08-31T00:34:31.232Z,15.43
2018-08-31T00:35:02.464Z,16.17
2018-08-31T00:35:33.584Z,16.87
2018-08-31T00:36:04.712Z,16.23
2018-08-31T00:36:35.885Z,17.93
2018-08-31T00:37:07.112Z,16.77
2018-08-31T00:37:38.248Z,17.17
2018-08-31T00:38:09.416Z,16.87
2018-08-31T00:38:40.593Z,17.50
2018-08-31T00:39:11.821Z,16.80
2018-08-31T00:39:42.953Z,16.93
2018-08-31T00:40:14.176Z,16.70
2018-08-31T00:40:45.297Z,16.83
2018-08-31T00:41:16.468Z,18.77
2018-08-31T00:41:47.639Z,17.13
2018-08-31T00:42:18.870Z,17.63
2018-08-31T00:42:50.069Z,16.60
2018-08-31T00:43:21.242Z,17.37
2018-08-31T00:43:52.404Z,17.23
2018-08-31T00:44:23.610Z,17.60
2018-08-31T00:44:54.731Z,17.50
2018-08-31T00:45:25.891Z,17.60
2018-08-31T00:45:57.044Z,17.30
2018-08-31T00:46:28.181Z,17.40
2018-08-31T00:46:59.300Z,18.17
2018-08-31T00:47:30.425Z,18.17
2018-08-31T00:48:01.540Z,17.13
2018-08-31T00:48:32.699Z,18.13
2018-08-31T00:49:03.889Z,18.23
2018-08-31T00:49:35.013Z,17.67
2018-08-31T00:50:06.185Z,17.60
2018-08-31T00:50:37.407Z,18.63
2018-08-31T00:51:08.568Z,17.07
2018-08-31T00:51:39.744Z,18.63
2018-08-31T00:52:10.903Z,17.90
2018-08-31T00:52:42.073Z,18.10
2018-08-31T00:53:13.187Z,18.40
2018-08-31T00:53:44.360Z,18.03
2018-08-31T00:54:15.540Z,17.90
2018-08-31T00:54:46.704Z,17.77
2018-08-31T00:55:17.819Z,18.07
2018-08-31T00:55:48.996Z,18.30
2018-08-31T00:56:20.119Z,18.40
2018-08-31T00:56:51.237Z,19.07
2018-08-31T00:57:22.463Z,19.10
2018-08-31T00:57:53.742Z,17.83
2018-08-31T00:58:24.901Z,18.30
2018-08-31T00:58:56.094Z,17.67
2018-08-31T00:59:27.270Z,17.90
2018-08-31T00:59:58.397Z,17.57
2018-08-31T01:00:29.620Z,17.13
2018-08-31T01:01:00.742Z,17.70
2018-08-31T01:01:31.924Z,17.60
2018-08-31T01:02:03.113Z,17.83
2018-08-31T01:02:34.396Z,17.77
2018-08-31T01:03:05.628Z,18.90
2018-08-31T01:03:36.823Z,18.93
2018-08-31T01:04:08.054Z,17.80
2018-08-31T01:04:39.256Z,17.23
2018-08-31T01:05:10.426Z,17.83
2018-08-31T01:05:41.705Z,18.47
2018-08-31T01:06:12.861Z,17.23
2018-08-31T01:06:43.977Z,17.67
2018-08-31T01:07:15.161Z,18.40
2018-08-31T01:07:46.299Z,17.33
2018-08-31T01:08:17.511Z,18.37
2018-08-31T01:08:48.729Z,18.13
2018-08-31T01:09:19.904Z,17.97
2018-08-31T01:09:51.007Z,18.33
2018-08-31T01:10:22.130Z,18.87
2018-08-31T01:10:53.366Z,19.07
2018-08-31T01:11:24.576Z,18.57
2018-08-31T01:11:55.725Z,18.83
2018-08-31T01:12:26.907Z,18.77
2018-08-31T01:12:58.095Z,18.63
2018-08-31T01:13:29.271Z,19.33
2018-08-31T01:14:00.404Z,18.87
2018-08-31T01:14:31.581Z,18.53
2018-08-31T01:15:02.758Z,19.63
2018-08-31T01:15:33.930Z,18.73
2018-08-31T01:16:05.043Z,19.07
2018-08-31T01:16:36.212Z,18.43
2018-08-31T01:17:08.047Z,18.73
2018-08-31T01:17:39.217Z,18.00
2018-08-31T01:18:10.333Z,19.50
2018-08-31T01:18:41.565Z,20.17
2018-08-31T01:19:12.747Z,20.37
2018-08-31T01:19:43.856Z,18.30
2018-08-31T01:20:14.975Z,20.47
2018-08-31T01:20:46.143Z,18.20
2018-08-31T01:21:17.252Z,18.83
2018-08-31T01:21:48.360Z,19.40
2018-08-31T01:22:19.516Z,18.93
2018-08-31T01:22:50.672Z,18.53
2018-08-31T01:23:21.882Z,18.40
2018-08-31T01:23:53.031Z,18.50
2018-08-31T01:24:24.152Z,19.33
2018-08-31T01:24:55.326Z,19.00
2018-08-31T01:25:26.549Z,19.67
2018-08-31T01:25:57.733Z,18.97
2018-08-31T01:26:28.974Z,18.83
2018-08-31T01:27:00.150Z,18.73
2018-08-31T01:27:31.421Z,18.07
2018-08-31T01:28:02.545Z,18.57
2018-08-31T01:28:33.714Z,19.93
2018-08-31T01:29:04.830Z,18.93
2018-08-31T01:29:36.045Z,19.17
2018-08-31T01:30:07.261Z,18.97
2018-08-31T01:30:38.420Z,19.13
2018-08-31T01:31:09.541Z,20.27
2018-08-31T01:31:40.720Z,20.60
2018-08-31T01:32:11.886Z,20.53
2018-08-31T01:32:43.060Z,20.07
2018-08-31T01:33:14.220Z,19.43
2018-08-31T01:33:45.344Z,19.17
2018-08-31T01:34:16.452Z,19.87
2018-08-31T01:34:47.680Z,20.00
2018-08-31T01:35:18.803Z,18.93
2018-08-31T01:35:49.987Z,20.17
2018-08-31T01:36:21.204Z,19.87
2018-08-31T01:36:52.393Z,19.77
2018-08-31T01:37:23.560Z,20.73
2018-08-31T01:37:54.683Z,19.93
2018-08-31T01:38:25.796Z,20.10
2018-08-31T01:38:56.911Z,20.17
2018-08-31T01:39:28.078Z,19.00
2018-08-31T01:39:59.289Z,19.10
2018-08-31T01:40:30.463Z,19.80
2018-08-31T01:41:01.583Z,19.93
2018-08-31T01:41:32.812Z,20.70
2018-08-31T01:42:03.974Z,19.57
2018-08-31T01:42:35.205Z,19.27
2018-08-31T01:43:06.327Z,20.33
2018-08-31T01:43:37.493Z,20.40
2018-08-31T01:44:08.675Z,18.63
2018-08-31T01:44:39.868Z,20.20
2018-08-31T01:45:11.126Z,20.70
2018-08-31T01:45:42.247Z,20.07
2018-08-31T01:46:13.363Z,20.70
2018-08-31T01:46:44.553Z,20.40
2018-08-31T01:47:15.844Z,20.03
2018-08-31T01:47:47.021Z,19.33
2018-08-31T01:48:18.197Z,20.00
2018-08-31T01:48:49.365Z,19.50
2018-08-31T01:49:20.475Z,20.27
2018-08-31T01:49:51.589Z,20.07
2018-08-31T01:50:22.764Z,20.72
2018-08-31T01:50:53.937Z,19.30
2018-08-31T01:51:25.048Z,19.93
2018-08-31T01:51:56.301Z,19.20
2018-08-31T01:52:27.522Z,19.75
2018-08-31T01:52:58.675Z,19.98
2018-08-31T01:53:29.799Z,18.70
2018-08-31T01:54:00.916Z,19.27
2018-08-31T01:54:32.039Z,19.87
2018-08-31T01:55:03.209Z,18.80
2018-08-31T01:55:34.367Z,19.13
2018-08-31T01:56:05.543Z,18.03
2018-08-31T01:56:36.672Z,18.45
2018-08-31T01:57:07.864Z,18.70
2018-08-31T01:57:38.979Z,18.85
2018-08-31T01:58:10.157Z,19.33
2018-08-31T01:58:41.330Z,19.20
2018-08-31T01:59:12.501Z,19.48
2018-08-31T01:59:43.624Z,18.50
2018-08-31T02:00:14.730Z,19.77
2018-08-31T02:00:45.893Z,19.37
2018-08-31T02:01:17.026Z,19.50
2018-08-31T02:01:48.241Z,19.82
2018-08-31T02:02:19.475Z,19.30
2018-08-31T02:02:50.761Z,19.45
2018-08-31T02:03:21.954Z,18.57
2018-08-31T02:03:53.154Z,19.75
2018-08-31T02:04:24.280Z,19.25
2018-08-31T02:04:55.456Z,18.07
2018-08-31T02:05:26.665Z,18.75
2018-08-31T02:05:57.794Z,18.00
2018-08-31T02:06:28.954Z,19.17
2018-08-31T02:07:00.158Z,18.70
2018-08-31T02:07:31.335Z,19.03
2018-08-31T02:08:02.556Z,17.77
2018-08-31T02:08:33.730Z,18.83
2018-08-31T02:09:04.951Z,18.77
2018-08-31T02:09:36.184Z,18.52
2018-08-31T02:10:07.369Z,17.57
2018-08-31T02:10:38.620Z,17.27
2018-08-31T02:11:09.808Z,17.40
2018-08-31T02:11:40.949Z,18.30
2018-08-31T02:12:12.076Z,16.87
2018-08-31T02:12:43.193Z,17.67
2018-08-31T02:13:14.309Z,17.67
2018-08-31T02:13:45.415Z,17.37
2018-08-31T02:14:16.646Z,17.23
2018-08-31T02:14:47.767Z,17.73
2018-08-31T02:15:18.888Z,16.90
2018-08-31T02:15:49.996Z,17.70
2018-08-31T02:16:21.100Z,17.70
2018-08-31T02:16:52.207Z,16.50
2018-08-31T02:17:23.316Z,16.63
2018-08-31T02:17:54.476Z,17.00
2018-08-31T02:18:25.749Z,16.70
2018-08-31T02:18:56.981Z,16.57
2018-08-31T02:19:28.107Z,16.85
2018-08-31T02:19:59.288Z,15.80
2018-08-31T02:20:30.395Z,15.90
2018-08-31T02:21:01.569Z,16.47
2018-08-31T02:21:32.742Z,16.80
2018-08-31T02:22:03.916Z,15.90
2018-08-31T02:22:35.038Z,16.27
2018-08-31T02:23:06.257Z,15.85
2018-08-31T02:23:37.379Z,15.40
2018-08-31T02:24:08.495Z,15.70
2018-08-31T02:24:39.723Z,14.97
2018-08-31T02:25:10.962Z,14.80
2018-08-31T02:25:42.210Z,14.80
2018-08-31T02:26:13.332Z,15.43
2018-08-31T02:26:44.459Z,15.72
2018-08-31T02:27:15.689Z,15.60
2018-08-31T02:27:46.808Z,16.57
2018-08-31T02:28:18.012Z,15.70
2018-08-31T02:28:49.252Z,16.20
2018-08-31T02:29:20.431Z,15.90
2018-08-31T02:29:51.553Z,15.57
2018-08-31T02:30:22.669Z,15.80
2018-08-31T02:30:53.799Z,15.70
2018-08-31T02:31:24.962Z,16.30
2018-08-31T02:31:56.149Z,16.03
2018-08-31T02:32:27.273Z,16.10
2018-08-31T02:32:58.435Z,15.93
2018-08-31T02:33:29.606Z,16.77
2018-08-31T02:34:00.731Z,16.20
2018-08-31T02:34:31.961Z,16.67
2018-08-31T02:35:03.089Z,16.17
2018-08-31T02:35:34.220Z,16.42
2018-08-31T02:36:05.345Z,16.62
2018-08-31T02:36:36.522Z,16.43
2018-08-31T02:37:07.696Z,17.15
2018-08-31T02:37:38.877Z,18.07
2018-08-31T02:38:10.162Z,16.40
2018-08-31T02:38:41.356Z,17.53
2018-08-31T02:39:12.517Z,16.10
2018-08-31T02:39:43.705Z,16.83
2018-08-31T02:40:14.889Z,17.50
2018-08-31T02:40:46.028Z,17.20
2018-08-31T02:41:17.151Z,16.77
2018-08-31T02:41:48.316Z,16.82
2018-08-31T02:42:19.443Z,17.30
2018-08-31T02:42:50.615Z,16.80
2018-08-31T02:43:21.746Z,17.55
2018-08-31T02:43:52.925Z,17.10
2018-08-31T02:44:24.109Z,17.82
2018-08-31T02:44:55.348Z,17.02
2018-08-31T02:45:26.528Z,16.50
2018-08-31T02:45:57.721Z,17.27
2018-08-31T02:46:28.831Z,16.70
2018-08-31T02:47:00.016Z,17.05
2018-08-31T02:47:31.132Z,16.90
2018-08-31T02:48:02.253Z,16.57
2018-08-31T02:48:33.493Z,17.23
2018-08-31T02:49:04.673Z,15.90
2018-08-31T02:49:35.804Z,16.85
2018-08-31T02:50:07.008Z,16.80
2018-08-31T02:50:38.252Z,16.65
2018-08-31T02:51:09.444Z,16.45
2018-08-31T02:51:40.622Z,17.05
2018-08-31T02:52:11.764Z,16.00
2018-08-31T02:52:43.006Z,15.93
2018-08-31T02:53:14.192Z,15.95
2018-08-31T02:53:45.402Z,16.35
2018-08-31T02:54:16.524Z,16.50
2018-08-31T02:54:47.679Z,15.95
2018-08-31T02:55:18.841Z,16.42
2018-08-31T02:55:49.960Z,16.55
2018-08-31T02:56:21.197Z,17.00
2018-08-31T02:56:52.360Z,16.73
2018-08-31T02:57:23.479Z,17.15
2018-08-31T02:57:54.645Z,15.72
2018-08-31T02:58:25.780Z,16.93
2018-08-31T02:58:56.900Z,17.02
2018-08-31T02:59:28.090Z,16.95
2018-08-31T02:59:59.211Z,16.82
2018-08-31T03:00:30.437Z,16.77
2018-08-31T03:01:01.612Z,17.20
2018-08-31T03:01:32.800Z,17.27
2018-08-31T03:02:03.978Z,17.42
2018-08-31T03:02:35.164Z,17.32
2018-08-31T03:03:06.281Z,18.00
2018-08-31T03:03:37.461Z,18.00
2018-08-31T03:04:08.600Z,17.27
2018-08-31T03:04:39.714Z,17.60
2018-08-31T03:05:10.938Z,17.95
2018-08-31T03:05:42.056Z,17.98
2018-08-31T03:06:13.243Z,17.95
2018-08-31T03:06:44.371Z,16.25
2018-08-31T03:07:15.622Z,17.45
2018-08-31T03:07:46.860Z,16.87
2018-08-31T03:08:17.982Z,16.87
2018-08-31T03:08:49.153Z,16.85
2018-08-31T03:09:20.396Z,16.93
2018-08-31T03:09:51.589Z,16.55
2018-08-31T03:10:22.781Z,16.97
2018-08-31T03:10:53.892Z,16.55
2018-08-31T03:11:25.128Z,17.67
2018-08-31T03:11:56.285Z,17.17
2018-08-31T03:12:27.471Z,17.73
2018-08-31T03:12:58.640Z,16.70
2018-08-31T03:13:29.816Z,16.73
2018-08-31T03:14:01.000Z,16.87
2018-08-31T03:14:32.232Z,16.45
2018-08-31T03:15:03.403Z,15.83
2018-08-31T03:15:34.516Z,16.75
2018-08-31T03:20:55.117Z,16.05
2018-08-31T03:21:26.345Z,17.25
2018-08-31T03:21:57.389Z,17.52
2018-08-31T03:22:28.561Z,17.67
2018-08-31T03:22:59.685Z,18.20
2018-08-31T03:23:30.920Z,17.80
2018-08-31T03:24:02.188Z,18.48
2018-08-31T03:24:33.383Z,17.87
2018-08-31T03:25:04.529Z,17.17
2018-08-31T03:25:35.646Z,18.30
2018-08-31T03:26:06.774Z,18.75
2018-08-31T03:26:37.993Z,18.55
2018-08-31T03:27:09.218Z,18.52
2018-08-31T03:27:40.370Z,17.42
2018-08-31T03:28:11.588Z,18.65
2018-08-31T03:28:42.761Z,17.92
2018-08-31T03:29:14.041Z,18.87
2018-08-31T03:29:45.167Z,19.00
2018-08-31T03:30:16.396Z,18.37
2018-08-31T03:30:47.524Z,18.23
2018-08-31T03:31:18.652Z,18.12
2018-08-31T03:31:49.836Z,18.48
2018-08-31T03:32:21.101Z,17.35
2018-08-31T03:32:52.230Z,19.07
2018-08-31T03:33:23.339Z,18.05
2018-08-31T03:33:54.534Z,18.17
2018-08-31T03:34:26.207Z,18.52
2018-08-31T03:34:57.336Z,18.55
2018-08-31T03:35:28.536Z,17.75
2018-08-31T03:35:59.669Z,17.73
2018-08-31T03:36:30.792Z,17.82
2018-08-31T03:37:01.941Z,17.98
2018-08-31T03:37:33.093Z,17.95
2018-08-31T03:38:04.211Z,18.60
2018-08-31T03:38:35.333Z,17.57
2018-08-31T03:39:06.555Z,17.92
2018-08-31T03:39:37.736Z,17.75
2018-08-31T03:40:08.919Z,17.90
2018-08-31T03:40:40.096Z,18.98
2018-08-31T03:41:11.300Z,18.02
2018-08-31T03:41:42.484Z,17.73
2018-08-31T03:42:14.208Z,17.12
2018-08-31T03:42:45.416Z,17.90
2018-08-31T03:43:16.657Z,17.57
2018-08-31T03:43:47.891Z,16.80
2018-08-31T03:44:19.119Z,16.40
2018-08-31T03:44:50.349Z,17.23
2018-08-31T03:45:21.531Z,16.90
2018-08-31T03:45:52.664Z,16.90
2018-08-31T03:46:23.853Z,17.82
2018-08-31T03:46:54.977Z,16.97
2018-08-31T03:47:26.148Z,17.25
2018-08-31T03:47:57.368Z,16.80
2018-08-31T03:48:28.549Z,16.90
2018-08-31T03:48:59.740Z,16.80
2018-08-31T03:49:30.871Z,16.48
2018-08-31T03:50:01.985Z,15.25
2018-08-31T03:50:33.140Z,16.62
2018-08-31T03:51:04.381Z,16.95
2018-08-31T03:51:35.503Z,17.10
2018-08-31T03:52:06.733Z,17.10
2018-08-31T03:52:37.900Z,15.55
2018-08-31T03:53:09.048Z,15.15
2018-08-31T03:53:40.223Z,15.60
2018-08-31T03:54:11.405Z,15.08
2018-08-31T03:54:43.106Z,14.73
2018-08-31T03:55:14.357Z,15.35
2018-08-31T03:55:45.488Z,15.00
2018-08-31T03:56:16.646Z,15.43
2018-08-31T03:56:47.767Z,14.53
2018-08-31T03:57:18.945Z,14.00
2018-08-31T03:57:50.061Z,14.87
2018-08-31T03:58:21.215Z,14.40
2018-08-31T03:58:52.332Z,15.10
2018-08-31T03:59:23.452Z,14.67
2018-08-31T03:59:54.572Z,14.93
2018-08-31T04:00:25.753Z,14.35
2018-08-31T04:00:56.972Z,14.25
2018-08-31T04:01:28.100Z,14.05
2018-08-31T04:01:59.218Z,14.13
2018-08-31T04:02:30.401Z,14.20
2018-08-31T04:03:01.601Z,14.43
2018-08-31T04:03:32.808Z,14.30
2018-08-31T04:04:03.974Z,14.87
2018-08-31T04:04:35.195Z,13.58
2018-08-31T04:05:06.422Z,14.67
2018-08-31T04:05:37.609Z,14.80
2018-08-31T04:06:08.836Z,13.80
2018-08-31T04:06:39.957Z,13.87
2018-08-31T04:07:11.189Z,13.70
2018-08-31T04:07:42.368Z,14.80
2018-08-31T04:08:13.475Z,14.40
2018-08-31T04:08:44.658Z,14.07
2018-08-31T04:09:15.836Z,14.00
2018-08-31T04:09:47.006Z,14.33
2018-08-31T04:10:18.122Z,14.53
2018-08-31T04:10:49.344Z,13.95
2018-08-31T04:11:20.479Z,14.57
2018-08-31T04:11:51.596Z,14.40
2018-08-31T04:12:22.784Z,14.00
2018-08-31T04:12:54.028Z,14.23
2018-08-31T04:13:25.155Z,14.70
2018-08-31T04:13:56.316Z,14.43
2018-08-31T04:14:27.432Z,14.37
2018-08-31T04:14:58.624Z,14.13
2018-08-31T04:15:29.754Z,15.17
2018-08-31T04:16:00.872Z,14.20
2018-08-31T04:16:32.022Z,13.63
2018-08-31T04:17:03.200Z,13.70
2018-08-31T04:17:34.376Z,14.20
2018-08-31T04:18:05.507Z,14.37
2018-08-31T04:18:36.736Z,13.37
2018-08-31T04:19:07.865Z,14.10
2018-08-31T04:19:38.985Z,13.73
2018-08-31T04:20:10.204Z,13.60
2018-08-31T04:20:41.486Z,13.67
2018-08-31T04:21:12.608Z,14.00
2018-08-31T04:21:43.721Z,13.80
2018-08-31T04:22:14.828Z,13.20
2018-08-31T04:22:45.948Z,13.13
2018-08-31T04:23:17.121Z,14.07
2018-08-31T04:23:48.345Z,13.53
2018-08-31T04:24:19.523Z,13.53
2018-08-31T04:24:50.700Z,12.27
2018-08-31T04:25:21.811Z,13.00
2018-08-31T04:25:52.928Z,13.90
2018-08-31T04:26:24.158Z,12.37
2018-08-31T04:26:55.298Z,13.13
2018-08-31T04:27:26.464Z,12.97
2018-08-31T04:27:57.693Z,12.80
2018-08-31T04:28:28.906Z,13.03
2018-08-31T04:29:00.088Z,13.10
2018-08-31T04:29:31.287Z,13.20
2018-08-31T04:30:02.517Z,12.87
2018-08-31T04:30:33.692Z,13.70
2018-08-31T04:31:04.807Z,13.33
2018-08-31T04:31:35.971Z,12.57
2018-08-31T04:32:07.137Z,13.10
2018-08-31T04:32:38.319Z,13.17
2018-08-31T04:33:09.492Z,12.93
2018-08-31T04:33:40.706Z,14.20
2018-08-31T04:34:11.936Z,13.00
2018-08-31T04:34:43.152Z,13.60
2018-08-31T04:35:14.252Z,13.47
2018-08-31T04:35:45.437Z,13.00
2018-08-31T04:36:16.562Z,12.63
2018-08-31T04:36:47.681Z,13.77
2018-08-31T04:37:18.919Z,13.70
2018-08-31T04:37:50.076Z,13.73
2018-08-31T04:38:21.300Z,13.47
2018-08-31T04:38:52.422Z,13.77
2018-08-31T04:39:23.533Z,13.67
2018-08-31T04:39:54.671Z,13.43
2018-08-31T04:40:25.849Z,13.60
2018-08-31T04:40:56.964Z,12.80
2018-08-31T04:41:28.136Z,12.90
2018-08-31T04:41:59.301Z,13.73
2018-08-31T04:42:30.433Z,12.80
2018-08-31T04:43:01.607Z,13.97
2018-08-31T04:43:32.734Z,14.37
2018-08-31T04:44:03.852Z,13.83
2018-08-31T04:44:35.016Z,13.70
2018-08-31T04:45:06.202Z,13.67
2018-08-31T04:45:37.320Z,13.10
2018-08-31T04:46:08.428Z,13.73
2018-08-31T04:46:39.612Z,13.17
2018-08-31T04:47:10.789Z,14.23
2018-08-31T04:47:41.985Z,13.50
2018-08-31T04:48:13.221Z,13.40
2018-08-31T04:48:44.396Z,12.87
2018-08-31T04:49:15.622Z,13.20
2018-08-31T04:49:47.219Z,13.60
2018-08-31T04:50:18.407Z,13.10
2018-08-31T04:50:49.515Z,13.40
2018-08-31T04:51:20.646Z,12.53
2018-08-31T04:51:51.768Z,13.13
2018-08-31T04:52:22.880Z,12.73
2018-08-31T04:52:54.129Z,13.53
2018-08-31T04:53:25.314Z,13.43
2018-08-31T04:53:56.485Z,12.67
2018-08-31T04:54:27.781Z,13.20
2018-08-31T04:54:58.956Z,12.67
2018-08-31T04:55:30.201Z,12.83
2018-08-31T04:56:01.324Z,13.37
2018-08-31T04:56:32.509Z,12.13
2018-08-31T04:57:03.629Z,12.50
2018-08-31T04:57:34.807Z,12.23
2018-08-31T04:58:05.941Z,12.10
2018-08-31T04:58:37.109Z,12.10
2018-08-31T04:59:08.309Z,11.70
2018-08-31T04:59:39.472Z,13.10
2018-08-31T05:00:10.658Z,13.13
2018-08-31T05:00:41.800Z,13.00
2018-08-31T05:01:13.047Z,12.63
2018-08-31T05:01:44.301Z,12.57
2018-08-31T05:02:15.452Z,12.70
2018-08-31T05:02:46.690Z,12.20
2018-08-31T05:03:17.901Z,12.13
2018-08-31T05:03:49.041Z,12.50
2018-08-31T05:04:20.223Z,12.53
2018-08-31T05:04:51.392Z,13.30
2018-08-31T05:05:22.537Z,12.70
2018-08-31T05:05:53.716Z,13.20
2018-08-31T05:06:24.855Z,13.13
2018-08-31T05:06:56.049Z,13.20
2018-08-31T05:07:27.217Z,13.93
2018-08-31T05:07:58.404Z,12.90
2018-08-31T05:08:29.568Z,14.07
2018-08-31T05:09:00.704Z,13.80
2018-08-31T05:09:31.876Z,12.87
2018-08-31T05:10:03.121Z,12.90
2018-08-31T05:10:34.304Z,14.03
2018-08-31T05:11:05.460Z,13.70
2018-08-31T05:11:36.624Z,13.20
2018-08-31T05:12:07.831Z,14.50
2018-08-31T05:12:39.000Z,13.63
2018-08-31T05:13:10.124Z,13.80
2018-08-31T05:13:41.289Z,13.47
2018-08-31T05:14:12.486Z,14.77
2018-08-31T05:14:43.619Z,13.03
2018-08-31T05:15:14.735Z,14.37
2018-08-31T05:15:45.851Z,14.73
2018-08-31T05:16:16.998Z,14.77
2018-08-31T05:16:48.173Z,13.90
2018-08-31T05:17:19.301Z,14.50
2018-08-31T05:17:50.537Z,14.27
2018-08-31T05:18:21.735Z,14.70
2018-08-31T05:18:52.948Z,14.53
2018-08-31T05:19:24.092Z,14.87
2018-08-31T05:19:55.220Z,15.03
2018-08-31T05:20:26.392Z,13.90
2018-08-31T05:20:57.583Z,15.37
2018-08-31T05:21:28.774Z,14.67
2018-08-31T05:22:00.017Z,15.40
2018-08-31T05:22:31.218Z,15.30
2018-08-31T05:23:02.474Z,14.90
2018-08-31T05:23:33.629Z,15.03
2018-08-31T05:24:04.866Z,14.97
2018-08-31T05:24:36.040Z,15.30
2018-08-31T05:25:07.285Z,14.27
2018-08-31T05:25:38.553Z,14.83
2018-08-31T05:26:09.749Z,15.10
2018-08-31T05:26:40.945Z,14.80
2018-08-31T05:27:12.061Z,15.53
2018-08-31T05:27:43.270Z,14.07
2018-08-31T05:28:14.462Z,14.80
2018-08-31T05:28:45.635Z,14.90
2018-08-31T05:29:16.869Z,14.10
2018-08-31T05:29:48.010Z,14.37
2018-08-31T05:30:19.192Z,14.80
2018-08-31T05:30:50.363Z,15.00
2018-08-31T05:31:21.541Z,15.87
2018-08-31T05:31:52.668Z,14.63
2018-08-31T05:32:23.912Z,15.03
2018-08-31T05:32:55.072Z,14.83
2018-08-31T05:33:26.252Z,14.47
2018-08-31T05:33:57.451Z,14.97
2018-08-31T05:34:28.640Z,14.80
2018-08-31T05:34:59.800Z,15.17
2018-08-31T05:35:30.991Z,14.63
2018-08-31T05:36:02.113Z,14.90
2018-08-31T05:36:33.336Z,14.33
2018-08-31T05:37:04.522Z,14.43
2018-08-31T05:37:35.693Z,14.80
2018-08-31T05:38:06.841Z,14.00
2018-08-31T05:38:37.959Z,13.77
2018-08-31T05:39:09.125Z,14.13
2018-08-31T05:39:40.259Z,14.83
2018-08-31T05:40:11.457Z,14.23
2018-08-31T05:40:42.647Z,15.47
2018-08-31T05:41:13.803Z,15.17
2018-08-31T05:41:44.984Z,14.10
2018-08-31T05:42:16.210Z,14.13
2018-08-31T05:42:47.502Z,13.60
2018-08-31T05:43:18.742Z,13.97
2018-08-31T05:43:49.879Z,14.00
2018-08-31T05:44:21.048Z,13.63
2018-08-31T05:44:52.181Z,14.27
2018-08-31T05:45:23.391Z,13.63
2018-08-31T05:45:54.592Z,12.90
2018-08-31T05:46:25.759Z,13.10
2018-08-31T05:46:56.936Z,13.13
2018-08-31T05:47:28.073Z,13.53
2018-08-31T05:47:59.437Z,13.33
2018-08-31T05:48:30.565Z,13.90
2018-08-31T05:49:01.676Z,13.40
2018-08-31T05:49:32.792Z,14.03
2018-08-31T05:50:03.904Z,14.10
2018-08-31T05:50:35.068Z,14.23
2018-08-31T05:51:06.175Z,14.37
2018-08-31T05:51:37.299Z,13.80
2018-08-31T05:52:08.473Z,13.93
2018-08-31T05:52:39.631Z,14.20
2018-08-31T05:53:10.807Z,14.53
2018-08-31T05:53:42.027Z,14.80
2018-08-31T05:54:13.255Z,14.57
2018-08-31T05:54:44.496Z,14.70
2018-08-31T05:55:15.705Z,14.30
2018-08-31T05:55:46.850Z,13.97
2018-08-31T05:56:18.028Z,13.63
2018-08-31T05:56:49.255Z,14.07
2018-08-31T05:57:21.359Z,13.77
2018-08-31T05:57:52.624Z,13.70
2018-08-31T05:58:23.912Z,14.13
2018-08-31T05:58:55.155Z,13.77
2018-08-31T05:59:26.348Z,13.70
2018-08-31T05:59:57.628Z,13.50
2018-08-31T06:00:28.959Z,13.60
2018-08-31T06:01:00.123Z,13.47
2018-08-31T06:01:31.296Z,13.33
2018-08-31T06:02:02.517Z,13.63
2018-08-31T06:02:34.513Z,14.03
2018-08-31T06:03:05.804Z,14.27
2018-08-31T06:03:37.093Z,13.00
2018-08-31T06:04:08.441Z,14.10
2018-08-31T06:04:39.620Z,12.93
2018-08-31T06:05:10.828Z,14.23
2018-08-31T06:05:41.959Z,13.53
2018-08-31T06:06:13.232Z,12.97
2018-08-31T06:06:44.460Z,13.53
2018-08-31T06:07:16.741Z,13.93
2018-08-31T06:07:47.867Z,13.30
2018-08-31T06:08:19.043Z,14.07
2018-08-31T06:08:50.257Z,13.50
2018-08-31T06:09:21.374Z,13.47
2018-08-31T06:09:52.524Z,13.80
2018-08-31T06:10:23.696Z,13.47
2018-08-31T06:10:54.884Z,13.57
2018-08-31T06:11:26.106Z,13.07
2018-08-31T06:11:58.092Z,13.43
2018-08-31T06:12:29.239Z,13.67
2018-08-31T06:13:00.465Z,12.80
2018-08-31T06:13:31.665Z,13.33
2018-08-31T06:14:02.893Z,13.83
2018-08-31T06:14:34.137Z,13.50
2018-08-31T06:15:05.398Z,13.07
2018-08-31T06:15:36.548Z,13.73
2018-08-31T06:16:07.806Z,12.83
2018-08-31T06:16:38.925Z,13.77
2018-08-31T06:17:10.106Z,13.97
2018-08-31T06:17:41.294Z,13.67
2018-08-31T06:18:12.484Z,13.40
2018-08-31T06:18:43.670Z,13.70
2018-08-31T06:19:14.840Z,13.27
2018-08-31T06:19:46.618Z,13.80
2018-08-31T06:20:17.751Z,13.67
2018-08-31T06:20:49.009Z,14.43
2018-08-31T06:21:20.140Z,14.17
2018-08-31T06:21:51.256Z,14.17
2018-08-31T06:22:22.541Z,14.37
2018-08-31T06:22:53.781Z,14.07
2018-08-31T06:23:25.020Z,13.57
2018-08-31T06:23:56.185Z,13.33
2018-08-31T06:24:27.349Z,14.30
2018-08-31T06:24:58.510Z,13.87
2018-08-31T06:25:29.693Z,13.30
2018-08-31T06:26:00.881Z,13.10
2018-08-31T06:26:32.020Z,13.27
2018-08-31T06:27:03.178Z,12.40
2018-08-31T06:27:34.622Z,11.87
2018-08-31T06:28:05.766Z,12.57
2018-08-31T06:28:36.884Z,12.30
2018-08-31T06:29:08.047Z,11.07
2018-08-31T06:29:39.343Z,12.27
2018-08-31T06:30:10.552Z,11.60
2018-08-31T06:30:41.746Z,11.67
2018-08-31T06:31:12.877Z,12.47
2018-08-31T06:31:43.999Z,11.73
2018-08-31T06:32:15.122Z,11.53
2018-08-31T06:32:46.415Z,11.97
2018-08-31T06:33:17.576Z,12.00
2018-08-31T06:33:48.770Z,11.97
2018-08-31T06:34:20.029Z,12.27
2018-08-31T06:34:51.201Z,12.10
2018-08-31T06:35:22.430Z,12.17
2018-08-31T06:35:53.699Z,12.70
2018-08-31T06:36:24.931Z,12.90
2018-08-31T06:36:56.064Z,11.77
2018-08-31T06:37:27.260Z,11.77
2018-08-31T06:37:58.429Z,12.50
2018-08-31T06:38:29.530Z,11.77
2018-08-31T06:39:00.668Z,11.97
2018-08-31T06:39:31.868Z,11.67
2018-08-31T06:40:02.984Z,11.90
2018-08-31T06:40:34.187Z,12.20
2018-08-31T06:41:05.281Z,12.00
2018-08-31T06:41:36.500Z,12.03
2018-08-31T06:42:07.672Z,12.37
2018-08-31T06:42:38.816Z,11.90
2018-08-31T06:43:10.022Z,12.33
2018-08-31T06:43:41.302Z,11.40
2018-08-31T06:44:12.537Z,12.10
2018-08-31T06:44:43.773Z,12.00
2018-08-31T06:45:14.948Z,11.97
2018-08-31T06:45:46.125Z,12.47
2018-08-31T06:46:17.295Z,12.00